Portada
METAR-TAF:

METAR-TAF

Aeropuertos :

Aeropuerto Internacional de Taskent

Taskent, Uzbekistán

latitud: 41-16N, longitud: 069-16E, altitud: 489 m

Observación

El informe se hizo hace 42 minutos, a las 03:00 UTC
Viento 4 kt del sur, variando entre sureste y suroeste
Temperatura 28°C
Humedad 32%
Presión 1006 hPa
Visibilidad 10 km o más
sin nubes por debajo de 1500 m y sin presencia de cumulonimbus.

METAR: UTTT 080300Z 17004KT 130V230 CAVOK 28/10 Q1006 R08R/CLRD70 NOSIG

Hora: 08:42 (03:42 UTC)

Pronóstico

El informe se hizo hace 4 horas y 42 minutos, a las 23:00 UTC
Pronóstico válido del 08 a las 00 UTC al 08 a las 24 UTC
Viento 10 kt del este
Visibilidad: 7000 m
Temporalmente
del 08 a las 08 UTC al 08 a las 18 UTC
Viento 10 kt del oeste con ráfagas de 20 kt
Escasas nubes a una altura de 6000 ft, Cumulonimbus.

TAF: UTTT 072300Z 0800/0824 08010KT 7000 NSC TX37/0810Z TEMPO 0808/0818 26010G20KT FEW060CB

Observaciones y pronósticos meteorológicos de más de 4000 aeropuertos (mensajes METAR y TAF).

Los puntos amarillos y rojos representan las estaciones disponibles.

Ponga el ratón en el punto deseado para ver el nombre de la estación.

Haga clic para ver las observaciones y los pronósticos meteorológicos.

Para cambiar el mapa : haga clic en los botones verdes con una cruz de color negro para hacer un zoom, en el botón verde con un guión para alejar o en las flechas verdes para mapas adyacentes.


METAR-TAF: